Terminal Aerodrome Forecast
Issued by NWS

Current Version | Previous Version | Text Only | Print | Product List | Glossary On
Versions: 1 2 3 4 5 6 7 8 9 10 11 12 13 14 15
210
FTAK31 PAJN 260524
TAFAGY
TAF
PAGY 260524Z 2606/2706 21016G26KT P6SM -RA FEW015 OVC035
     FM261200 23012KT P6SM -RA SCT015 OVC025
     FM261700 VRB06KT P6SM BKN050
     FM270300 03010KT P6SM BKN050
      AMD LTD TO CLD VIS AND WIND=

USA.gov is the U.S. government's official web portal to all federal, state and local government web resources and services.